createdAt,value
2022-08-23T00:04:22.208Z,7.00
2022-08-23T00:09:35.417Z,7.25
2022-08-23T00:14:43.137Z,7.25
2022-08-23T00:19:49.027Z,9.00
2022-08-23T00:24:51.805Z,7.75
2022-08-23T00:29:56.836Z,8.50
2022-08-23T00:35:00.936Z,9.25
2022-08-23T00:40:05.149Z,9.25
2022-08-23T00:45:32.414Z,8.75
2022-08-23T00:50:42.139Z,8.25
2022-08-23T00:55:47.323Z,7.25
2022-08-23T01:00:54.324Z,8.50
2022-08-23T01:06:02.498Z,7.00
2022-08-23T01:11:10.322Z,7.00
2022-08-23T01:16:19.084Z,6.50
2022-08-23T01:21:28.435Z,8.00
2022-08-23T01:26:35.269Z,8.75
2022-08-23T01:31:38.475Z,7.50
2022-08-23T01:36:43.512Z,8.00
2022-08-23T01:41:47.704Z,6.50
2022-08-23T01:46:50.583Z,8.50
2022-08-23T01:52:00.136Z,6.25
2022-08-23T01:57:06.998Z,7.00
2022-08-23T02:02:11.397Z,7.00
2022-08-23T02:07:14.249Z,7.25
2022-08-23T02:12:18.606Z,8.00
2022-08-23T02:17:22.136Z,7.75
2022-08-23T02:22:25.023Z,7.00
2022-08-23T02:27:29.325Z,8.50
2022-08-23T02:32:32.121Z,8.00
2022-08-23T02:37:35.730Z,7.75
2022-08-23T02:42:41.926Z,7.50
2022-08-23T02:47:46.152Z,9.00
2022-08-23T02:52:55.137Z,10.75
2022-08-23T02:58:00.437Z,9.25
2022-08-23T03:03:03.572Z,7.00
2022-08-23T03:08:06.901Z,8.50
2022-08-23T03:13:19.768Z,7.00
2022-08-23T03:18:25.080Z,7.50
2022-08-23T03:23:28.652Z,8.50
2022-08-23T03:28:34.810Z,9.75
2022-08-23T03:33:39.302Z,8.50
2022-08-23T03:38:42.695Z,8.25
2022-08-23T03:43:47.840Z,9.75
2022-08-23T03:48:52.155Z,8.75
2022-08-23T03:53:55.206Z,9.00
2022-08-23T03:59:01.716Z,7.50
2022-08-23T04:04:05.576Z,7.25
2022-08-23T04:09:11.219Z,8.00
2022-08-23T04:14:16.150Z,9.00
2022-08-23T04:19:19.105Z,11.75
2022-08-23T04:24:34.757Z,10.50
2022-08-23T04:29:39.940Z,10.50
2022-08-23T04:34:45.492Z,10.50
2022-08-23T04:40:08.394Z,9.50
2022-08-23T04:45:18.924Z,9.00
2022-08-23T04:50:25.903Z,10.00
2022-08-23T04:55:52.165Z,9.00
2022-08-23T05:00:56.674Z,10.25
2022-08-23T05:06:04.946Z,9.25
2022-08-23T05:11:14.395Z,8.25
2022-08-23T05:16:19.164Z,8.25
2022-08-23T05:21:31.118Z,9.50
2022-08-23T05:26:34.101Z,11.00
2022-08-23T05:31:38.424Z,9.75
2022-08-23T05:36:47.594Z,9.50
2022-08-23T05:42:02.901Z,12.25
2022-08-23T05:47:11.503Z,13.00
2022-08-23T05:52:41.536Z,14.00
2022-08-23T05:57:45.509Z,12.00
2022-08-23T06:02:50.764Z,11.75
2022-08-23T06:07:55.737Z,11.75
2022-08-23T06:13:00.139Z,14.25
2022-08-23T06:18:05.378Z,12.75
2022-08-23T06:23:08.936Z,11.50
2022-08-23T06:28:15.440Z,14.00
2022-08-23T06:33:20.704Z,12.25
2022-08-23T06:38:58.532Z,11.75
2022-08-23T06:44:22.190Z,12.50
2022-08-23T06:49:52.582Z,11.75
2022-08-23T06:55:21.212Z,13.00
2022-08-23T07:00:37.568Z,11.75
2022-08-23T07:05:50.649Z,11.75
2022-08-23T07:11:00.028Z,13.25
2022-08-23T07:16:03.861Z,10.50
2022-08-23T07:21:09.856Z,11.25
2022-08-23T07:26:17.446Z,10.50
2022-08-23T07:31:22.918Z,9.00
2022-08-23T07:36:28.914Z,10.00
2022-08-23T07:41:32.763Z,10.75
2022-08-23T07:46:39.730Z,11.00
2022-08-23T07:51:48.887Z,11.00
2022-08-23T07:56:52.607Z,8.00
2022-08-23T08:02:14.155Z,7.00
2022-08-23T08:07:20.757Z,8.00
2022-08-23T08:12:32.846Z,7.50
2022-08-23T08:17:42.415Z,7.00
2022-08-23T08:23:07.298Z,6.00
2022-08-23T08:28:28.395Z,7.00
2022-08-23T08:33:34.372Z,6.00
2022-08-23T08:38:47.918Z,7.00
2022-08-23T08:44:04.721Z,5.00
2022-08-23T08:49:15.350Z,4.00
2022-08-23T08:54:23.847Z,4.75
2022-08-23T08:59:36.246Z,6.00
2022-08-23T09:04:39.652Z,4.50
2022-08-23T09:10:26.955Z,4.00
2022-08-23T09:15:55.922Z,6.00
2022-08-23T09:21:01.782Z,5.00
2022-08-23T09:26:18.796Z,5.75
2022-08-23T09:31:39.920Z,6.00
2022-08-23T09:36:44.256Z,7.00
2022-08-23T09:41:48.958Z,5.00
2022-08-23T09:47:07.070Z,7.50
2022-08-23T09:52:22.117Z,6.75
2022-08-23T09:57:34.737Z,5.00
2022-08-23T10:02:37.661Z,6.25
2022-08-23T10:07:57.128Z,6.00
2022-08-23T10:13:02.787Z,7.00
2022-08-23T10:18:12.000Z,5.50
2022-08-23T10:23:29.964Z,7.75
2022-08-23T10:29:00.937Z,8.00
2022-08-23T10:34:29.867Z,6.75
2022-08-23T10:39:33.698Z,9.25
2022-08-23T10:44:49.175Z,7.75
2022-08-23T10:49:55.685Z,8.25
2022-08-23T10:55:06.388Z,7.50
2022-08-23T11:00:18.330Z,9.75
2022-08-23T11:05:27.143Z,6.50
2022-08-23T11:10:56.029Z,8.00
2022-08-23T11:16:14.634Z,7.75
2022-08-23T11:21:50.161Z,9.50
2022-08-23T11:27:07.806Z,7.75
2022-08-23T11:32:38.676Z,8.75
2022-08-23T11:37:57.112Z,7.75
2022-08-23T11:43:12.450Z,7.75
2022-08-23T11:48:25.356Z,9.00
2022-08-23T11:53:45.254Z,7.75
2022-08-23T11:59:08.775Z,8.00
2022-08-23T12:04:31.703Z,8.25
2022-08-23T12:09:55.972Z,5.75
2022-08-23T12:15:00.766Z,6.00
2022-08-23T12:20:16.960Z,7.00
2022-08-23T12:25:23.190Z,6.75
2022-08-23T12:30:29.644Z,7.00
2022-08-23T12:35:41.306Z,6.00
2022-08-23T12:40:46.879Z,5.00
2022-08-23T12:45:52.384Z,6.75
2022-08-23T12:51:04.446Z,6.00
2022-08-23T12:56:11.921Z,4.75
2022-08-23T13:01:22.705Z,5.00
2022-08-23T13:06:31.284Z,4.00
2022-08-23T13:11:37.285Z,6.00
2022-08-23T13:16:44.810Z,4.00
2022-08-23T13:21:53.273Z,6.50
2022-08-23T13:27:13.834Z,5.25
2022-08-23T13:32:27.324Z,5.75
2022-08-23T13:37:33.536Z,5.25
2022-08-23T13:42:38.759Z,4.75
2022-08-23T13:47:47.814Z,6.50
2022-08-23T13:53:13.405Z,6.00
2022-08-23T13:58:25.249Z,5.00
2022-08-23T14:03:29.465Z,3.75
2022-08-23T14:08:33.625Z,4.75
2022-08-23T14:13:37.330Z,4.00
2022-08-23T14:19:16.329Z,4.00
2022-08-23T14:24:05.045Z,5.25
2022-08-23T14:29:07.876Z,4.00
2022-08-23T14:34:18.123Z,4.50
2022-08-23T14:39:22.549Z,5.50
2022-08-23T14:44:29.000Z,4.75
2022-08-23T14:49:36.055Z,3.75
2022-08-23T14:54:40.295Z,5.00
2022-08-23T14:59:43.135Z,5.00
2022-08-23T15:04:45.903Z,5.50
2022-08-23T15:09:54.483Z,4.25
2022-08-23T15:14:57.389Z,4.00
2022-08-23T15:20:00.658Z,4.25
2022-08-23T15:25:05.489Z,4.50
2022-08-23T15:30:09.454Z,5.25
2022-08-23T15:35:12.371Z,3.00
2022-08-23T15:40:17.017Z,4.50
2022-08-23T15:45:20.135Z,4.00
2022-08-23T15:50:27.077Z,3.25
2022-08-23T15:55:33.570Z,5.25
2022-08-23T16:00:36.303Z,4.50
2022-08-23T16:05:41.091Z,4.00
2022-08-23T16:10:45.666Z,4.00
2022-08-23T16:15:49.218Z,4.50
2022-08-23T16:20:54.125Z,4.00
2022-08-23T16:26:01.170Z,5.00
2022-08-23T16:31:04.417Z,4.00
2022-08-23T16:36:08.544Z,3.00
2022-08-23T16:41:13.500Z,4.50
2022-08-23T16:46:17.331Z,4.00
2022-08-23T16:51:21.654Z,4.25
2022-08-23T16:56:25.853Z,4.50
2022-08-23T17:01:29.615Z,4.50
2022-08-23T17:06:32.534Z,4.75
2022-08-23T17:11:37.736Z,3.50
2022-08-23T17:16:41.106Z,4.00
2022-08-23T17:21:44.826Z,4.00
2022-08-23T17:26:49.653Z,4.50
2022-08-23T17:31:52.495Z,6.00
2022-08-23T17:36:56.294Z,3.25
2022-08-23T17:42:00.548Z,4.75
2022-08-23T17:47:07.688Z,3.75
2022-08-23T17:52:11.587Z,3.50
2022-08-23T17:57:16.056Z,3.75
2022-08-23T18:02:20.635Z,4.25
2022-08-23T18:07:23.473Z,4.00
2022-08-23T18:12:28.377Z,4.00
2022-08-23T18:17:31.671Z,2.25
2022-08-23T18:22:34.462Z,3.50
2022-08-23T18:27:56.063Z,3.50
2022-08-23T18:32:58.936Z,4.00
2022-08-23T18:38:02.412Z,5.00
2022-08-23T18:43:07.503Z,9.00
2022-08-23T18:48:12.223Z,8.00
2022-08-23T18:53:15.405Z,6.00
2022-08-23T18:58:21.029Z,6.25
2022-08-23T19:03:25.594Z,6.75
2022-08-23T19:08:28.356Z,6.50
2022-08-23T19:13:33.043Z,6.50
2022-08-23T19:18:36.207Z,6.25
2022-08-23T19:23:39.008Z,9.00
2022-08-23T19:28:43.575Z,6.25
2022-08-23T19:33:46.407Z,7.00
2022-08-23T19:38:49.426Z,5.25
2022-08-23T19:43:53.769Z,7.50
2022-08-23T19:48:56.985Z,8.25
2022-08-23T19:54:10.947Z,6.75
2022-08-23T19:59:19.559Z,7.00
2022-08-23T20:04:23.282Z,7.00
2022-08-23T20:09:28.639Z,6.75
2022-08-23T20:14:33.914Z,7.25
2022-08-23T20:19:37.112Z,7.00
2022-08-23T20:24:51.432Z,7.75
2022-08-23T20:29:56.973Z,8.25
2022-08-23T20:35:00.105Z,8.25
2022-08-23T20:40:03.628Z,7.00
2022-08-23T20:45:09.236Z,7.50
2022-08-23T20:50:12.079Z,7.25
2022-08-23T20:55:15.083Z,8.00
2022-08-23T21:00:19.498Z,7.75
2022-08-23T21:05:22.436Z,6.25
2022-08-23T21:10:27.016Z,6.00
2022-08-23T21:15:31.718Z,6.00
2022-08-23T21:20:34.548Z,6.00
2022-08-23T21:25:37.529Z,7.25
2022-08-23T21:30:41.796Z,7.25
2022-08-23T21:35:45.426Z,8.75
2022-08-23T21:40:55.660Z,7.50
2022-08-23T21:46:00.045Z,7.00
2022-08-23T21:51:02.991Z,8.50
2022-08-23T21:56:05.966Z,7.75
2022-08-23T22:01:10.167Z,7.50
2022-08-23T22:06:14.370Z,7.00
2022-08-23T22:11:17.257Z,6.50
2022-08-23T22:16:22.451Z,7.25
2022-08-23T22:21:26.417Z,8.75
2022-08-23T22:26:29.665Z,6.75
2022-08-23T22:31:35.542Z,7.00
2022-08-23T22:36:38.335Z,7.00
2022-08-23T22:41:41.085Z,6.50
2022-08-23T22:46:45.329Z,6.00
2022-08-23T22:51:49.186Z,6.50
2022-08-23T22:56:58.424Z,6.00
2022-08-23T23:02:04.092Z,8.25
2022-08-23T23:07:07.067Z,6.75
2022-08-23T23:12:09.894Z,6.50
2022-08-23T23:17:14.101Z,7.50
2022-08-23T23:22:16.832Z,7.50
2022-08-23T23:27:19.602Z,6.75
2022-08-23T23:32:23.730Z,7.50
2022-08-23T23:37:26.565Z,7.25
2022-08-23T23:42:29.286Z,6.75
2022-08-23T23:47:33.490Z,6.75
2022-08-23T23:52:36.843Z,7.50
2022-08-23T23:57:39.689Z,6.50
